Time;durP1;ratioP1;P1;durP2;ratioP2;P2;SDS_P1;SDS_P2;PMS_P1;PMS_P2;Temp;Humidity;BMP_temperature;BMP_pressure;BME280_temperature;BME280_humidity;BME280_pressure;Samples;Min_cycle;Max_cycle;Signal;HPM_P1;HPM_P2
2022/06/08 00:01:43;;;;;;;3.35;1.48;;;;;;;15.36;49.98;92219.53;4754570;30;20046;-75
2022/06/08 00:04:12;;;;;;;1.05;0.80;;;;;;;15.32;50.03;92223.91;4739500;30;20031;-74
2022/06/08 00:06:38;;;;;;;2.00;0.82;;;;;;;15.28;49.96;92218.47;4767234;30;20058;-74
2022/06/08 00:09:04;;;;;;;1.17;0.95;;;;;;;15.25;50.64;92218.38;4751581;30;20048;-74
2022/06/08 00:11:30;;;;;;;2.83;1.10;;;;;;;15.23;50.74;92220.56;4747979;30;20032;-74
2022/06/08 00:13:55;;;;;;;0.85;0.73;;;;;;;15.17;50.42;92222.59;4767146;30;20567;-74
2022/06/08 00:16:22;;;;;;;1.90;1.10;;;;;;;15.16;49.71;92216.56;4766345;30;20044;-74
2022/06/08 00:18:47;;;;;;;3.03;1.00;;;;;;;15.18;49.57;92214.38;4737005;30;20040;-74
2022/06/08 00:21:14;;;;;;;2.10;1.00;;;;;;;15.15;50.09;92209.75;4761112;30;20378;-74
2022/06/08 00:23:41;;;;;;;1.98;1.15;;;;;;;15.13;49.62;92205.88;4769859;30;20051;-74
2022/06/08 00:26:07;;;;;;;2.85;0.82;;;;;;;15.10;50.08;92202.00;4763959;30;20479;-74
2022/06/08 00:28:33;;;;;;;1.63;1.00;;;;;;;15.15;48.79;92207.13;4766053;30;20375;-74
2022/06/08 00:30:59;;;;;;;1.48;1.00;;;;;;;15.19;48.45;92202.72;4736392;30;20039;-74
2022/06/08 00:33:25;;;;;;;2.35;0.88;;;;;;;15.23;48.81;92199.47;4769093;30;20044;-74
2022/06/08 00:35:51;;;;;;;1.45;1.00;;;;;;;15.24;48.62;92203.63;4770191;30;20039;-74
2022/06/08 00:38:17;;;;;;;2.10;0.98;;;;;;;15.22;49.16;92203.97;4753748;30;20385;-74
2022/06/08 00:41:15;;;;;;;1.95;0.98;;;;;;;15.19;49.41;92202.72;4769709;30;20533;-74
2022/06/08 00:43:42;;;;;;;1.08;0.90;;;;;;;15.14;49.71;92195.00;4740436;30;20578;-74
2022/06/08 00:46:08;;;;;;;1.20;0.90;;;;;;;15.10;50.08;92196.72;4762934;30;20415;-74
2022/06/08 00:48:46;;;;;;;1.58;0.95;;;;;;;15.02;50.79;92189.69;4769640;30;20118;-74
2022/06/08 00:51:12;;;;;;;1.80;0.77;;;;;;;14.96;51.12;92196.22;4770263;30;20035;-75
2022/06/08 00:53:43;;;;;;;3.67;1.10;;;;;;;14.92;50.72;92193.44;4769554;30;20031;-74
2022/06/08 00:56:15;;;;;;;1.65;1.00;;;;;;;14.95;49.95;92192.81;4753027;30;20039;-74
2022/06/08 00:58:42;;;;;;;1.55;0.90;;;;;;;14.95;49.73;92184.13;4768620;30;20036;-74
2022/06/08 01:01:08;;;;;;;1.65;1.10;;;;;;;14.93;50.23;92181.06;4755748;30;20044;-74
2022/06/08 01:03:34;;;;;;;1.98;0.95;;;;;;;14.93;50.28;92186.31;4755034;30;20440;-74
2022/06/08 01:06:07;;;;;;;2.92;1.00;;;;;;;14.91;50.09;92184.00;4759904;30;20132;-73
2022/06/08 01:08:41;;;;;;;0.95;0.80;;;;;;;14.90;49.93;92187.72;4769836;30;20039;-74
2022/06/08 01:11:17;;;;;;;1.58;1.00;;;;;;;14.88;50.08;92186.50;4753365;30;20463;-74
2022/06/08 01:13:44;;;;;;;1.55;1.00;;;;;;;14.85;50.10;92185.28;4768855;30;20487;-74
2022/06/08 01:16:14;;;;;;;1.52;0.90;;;;;;;14.83;50.72;92178.78;4751919;30;20027;-74
2022/06/08 01:18:41;;;;;;;1.05;0.80;;;;;;;14.81;50.00;92183.59;4747913;30;20107;-74
2022/06/08 01:21:20;;;;;;;1.60;1.08;;;;;;;14.81;49.91;92178.31;4734015;30;20143;-74
2022/06/08 01:23:51;;;;;;;1.98;0.90;;;;;;;14.80;49.87;92174.91;4747691;30;20392;-74
2022/06/08 01:26:28;;;;;;;1.77;1.17;;;;;;;14.81;49.48;92176.44;4752835;30;20049;-74
2022/06/08 01:29:06;;;;;;;2.63;1.00;;;;;;;14.84;49.24;92167.13;4752934;30;20082;-74
2022/06/08 01:31:44;;;;;;;0.90;0.80;;;;;;;14.83;49.59;92170.88;4739968;30;20424;-74
2022/06/08 01:34:39;;;;;;;2.72;1.00;;;;;;;14.87;48.74;92161.25;4742217;30;20484;-74
2022/06/08 01:37:30;;;;;;;1.00;0.90;;;;;;;14.88;48.77;92160.13;4768861;30;20134;-74
2022/06/08 01:40:09;;;;;;;1.40;0.93;;;;;;;14.89;48.83;92162.47;4750512;30;20055;-74
2022/06/08 01:42:57;;;;;;;2.58;1.10;;;;;;;14.90;48.63;92155.31;4752705;30;20613;-74
2022/06/08 01:45:45;;;;;;;1.73;0.85;;;;;;;14.92;48.43;92153.13;4773815;30;20039;-74
2022/06/08 01:48:36;;;;;;;1.25;1.00;;;;;;;14.93;48.67;92150.19;4774983;30;20061;-74
2022/06/08 01:51:36;;;;;;;1.15;0.80;;;;;;;14.92;48.65;92153.13;4752111;30;20067;-74
2022/06/08 01:54:11;;;;;;;3.78;0.95;;;;;;;14.89;48.92;92148.53;4767359;30;20545;-73
2022/06/08 01:56:37;;;;;;;4.28;1.00;;;;;;;15.07;47.87;92144.66;4768542;30;20051;-74
2022/06/08 01:59:18;;;;;;;1.88;0.90;;;;;;;15.00;48.40;92141.78;4752500;30;20054;-73
2022/06/08 02:01:55;;;;;;;1.35;0.88;;;;;;;14.93;49.12;92141.53;4768464;30;20387;-73
2022/06/08 02:04:25;;;;;;;0.70;0.70;;;;;;;14.86;49.25;92133.34;4752319;30;20054;-74
2022/06/08 02:07:01;;;;;;;1.52;0.93;;;;;;;14.79;49.87;92128.56;4737820;30;20063;-74
2022/06/08 02:09:47;;;;;;;1.00;0.77;;;;;;;14.71;50.22;92127.53;4736520;30;20044;-74
2022/06/08 02:12:17;;;;;;;1.42;0.90;;;;;;;14.66;50.36;92125.09;4750689;30;20047;-74
2022/06/08 02:14:53;;;;;;;2.88;1.00;;;;;;;14.60;50.66;92131.66;4734583;30;20044;-74
2022/06/08 02:17:32;;;;;;;4.05;1.00;;;;;;;14.56;50.70;92123.59;4754602;30;20440;-74
2022/06/08 02:20:37;;;;;;;1.40;0.95;;;;;;;14.51;51.41;92123.75;4752484;30;20047;-73
2022/06/08 02:23:11;;;;;;;3.15;0.90;;;;;;;14.45;51.82;92122.38;4747885;30;20084;-74
2022/06/08 02:25:50;;;;;;;0.95;0.80;;;;;;;14.40;51.79;92116.53;4733210;30;20040;-73
2022/06/08 02:28:20;;;;;;;1.52;0.88;;;;;;;14.36;51.76;92125.09;4734557;30;20048;-73
2022/06/08 02:30:53;;;;;;;2.22;0.90;;;;;;;14.38;51.11;92124.75;4742234;30;20043;-74
2022/06/08 02:36:27;;;;;;;1.10;0.80;;;;;;;14.44;50.18;92123.50;4752032;30;20047;-74
2022/06/08 02:39:09;;;;;;;0.73;0.68;;;;;;;14.52;49.93;92124.53;4752035;30;20109;-74
2022/06/08 02:41:38;;;;;;;1.35;0.95;;;;;;;14.53;49.93;92132.13;4752208;30;20052;-74
2022/06/08 02:44:10;;;;;;;2.53;0.80;;;;;;;14.54;50.11;92119.72;4748881;30;20583;-74
2022/06/08 02:46:49;;;;;;;1.52;0.90;;;;;;;14.53;49.89;92120.81;4754656;30;20048;-73
2022/06/08 02:49:17;;;;;;;2.45;0.90;;;;;;;14.55;49.64;92126.56;4752039;30;20047;-74
2022/06/08 02:51:48;;;;;;;3.00;1.10;;;;;;;14.57;49.68;92121.75;4737525;30;20555;-74
2022/06/08 02:54:19;;;;;;;4.82;1.00;;;;;;;14.60;49.40;92129.00;4766764;30;20043;-74
2022/06/08 02:56:51;;;;;;;0.90;0.75;;;;;;;14.62;49.36;92126.84;4759746;30;20499;-73
2022/06/08 02:59:24;;;;;;;4.15;1.13;;;;;;;14.64;49.02;92135.19;4762939;30;20089;-73
2022/06/08 03:01:58;;;;;;;1.35;0.95;;;;;;;14.67;48.92;92129.28;4734514;30;20055;-74
2022/06/08 03:04:57;;;;;;;2.17;0.93;;;;;;;14.66;49.08;92135.66;4734351;30;20419;-74
2022/06/08 03:07:29;;;;;;;1.50;1.00;;;;;;;14.70;48.49;92141.03;4765198;30;20410;-73
2022/06/08 03:09:59;;;;;;;1.23;0.90;;;;;;;14.70;48.82;92146.28;4750205;30;20104;-73
2022/06/08 03:12:34;;;;;;;2.00;1.05;;;;;;;14.69;48.92;92145.53;4769648;30;20695;-75
2022/06/08 03:15:02;;;;;;;1.40;0.90;;;;;;;14.67;48.90;92139.03;4750586;30;20047;-75
2022/06/08 03:17:32;;;;;;;3.17;1.17;;;;;;;14.67;48.92;92142.44;4766479;30;20054;-75
2022/06/08 03:19:59;;;;;;;1.30;1.00;;;;;;;14.66;49.03;92143.53;4723309;30;20426;-77
2022/06/08 03:22:25;;;;;;;1.77;0.98;;;;;;;14.64;49.53;92140.47;4769562;30;20036;-76
2022/06/08 03:24:52;;;;;;;0.98;0.70;;;;;;;14.57;49.94;92142.81;4772859;30;20050;-76
2022/06/08 03:27:20;;;;;;;2.75;1.13;;;;;;;14.53;50.14;92147.16;4768029;30;20047;-76
2022/06/08 03:29:51;;;;;;;2.40;1.00;;;;;;;14.51;49.62;92149.31;4755312;30;20173;-76
2022/06/08 03:32:17;;;;;;;1.42;0.90;;;;;;;14.52;49.42;92151.66;4766895;30;20047;-76
2022/06/08 03:34:43;;;;;;;1.48;1.00;;;;;;;14.50;49.79;92151.19;4732620;30;20062;-76
2022/06/08 03:37:10;;;;;;;5.40;1.00;;;;;;;14.50;50.18;92155.66;4749060;30;20091;-76
2022/06/08 03:39:39;;;;;;;2.10;0.88;;;;;;;14.44;50.64;92154.31;4751446;30;20064;-76
2022/06/08 03:42:05;;;;;;;3.95;0.93;;;;;;;14.40;50.58;92151.53;4754041;30;20052;-76
2022/06/08 03:44:32;;;;;;;1.73;0.90;;;;;;;14.43;49.97;92158.03;4754832;30;20066;-76
2022/06/08 03:47:04;;;;;;;1.17;0.88;;;;;;;14.46;49.86;92157.41;4754912;30;20582;-76
2022/06/08 03:49:30;;;;;;;1.10;0.90;;;;;;;14.45;49.78;92154.00;4739918;30;20046;-76
2022/06/08 03:52:00;;;;;;;1.95;0.85;;;;;;;14.49;49.68;92164.69;4755205;30;20035;-76
2022/06/08 03:54:32;;;;;;;1.92;1.10;;;;;;;14.49;49.97;92156.78;4754505;30;20051;-76
2022/06/08 03:57:03;;;;;;;1.00;0.90;;;;;;;14.55;49.43;92160.81;4770862;30;20396;-76
2022/06/08 03:59:31;;;;;;;1.20;0.90;;;;;;;14.57;49.38;92158.63;4770053;30;20046;-76
2022/06/08 04:01:59;;;;;;;2.05;0.98;;;;;;;14.58;48.92;92166.19;4754934;30;20521;-76
2022/06/08 04:04:26;;;;;;;4.30;1.08;;;;;;;14.72;49.26;92158.06;4770792;30;20071;-76
2022/06/08 04:06:52;;;;;;;1.90;1.10;;;;;;;14.76;49.17;92166.09;4754569;30;20101;-76
2022/06/08 04:09:18;;;;;;;8.48;1.08;;;;;;;14.75;48.95;92167.97;4754506;30;20031;-76
2022/06/08 04:11:47;;;;;;;3.45;1.17;;;;;;;14.74;49.56;92165.66;4786787;30;20067;-76
2022/06/08 04:14:13;;;;;;;1.48;0.80;;;;;;;14.74;50.66;92168.28;4772546;30;20034;-76
2022/06/08 04:16:41;;;;;;;4.05;1.00;;;;;;;14.65;51.78;92170.97;4737694;30;20043;-76
2022/06/08 04:19:10;;;;;;;2.88;1.08;;;;;;;14.57;52.72;92175.19;4769152;30;20115;-76
2022/06/08 04:21:37;;;;;;;4.97;1.05;;;;;;;14.51;53.07;92179.06;4739009;30;20032;-76
2022/06/08 04:24:06;;;;;;;1.95;1.05;;;;;;;14.44;54.17;92170.91;4754118;30;20135;-76
2022/06/08 04:26:33;;;;;;;1.08;0.95;;;;;;;14.40;55.22;92169.97;4739757;30;20659;-76
2022/06/08 04:29:10;;;;;;;4.38;1.05;;;;;;;14.43;55.25;92169.34;4736633;30;20044;-76
2022/06/08 04:31:37;;;;;;;2.05;1.13;;;;;;;14.35;55.76;92170.94;4736675;30;20051;-76
2022/06/08 04:34:13;;;;;;;1.60;1.00;;;;;;;14.37;56.89;92165.34;4726932;30;20093;-76
2022/06/08 04:36:40;;;;;;;4.07;1.05;;;;;;;14.37;56.19;92166.13;4747490;30;20111;-76
2022/06/08 04:39:08;;;;;;;1.20;0.90;;;;;;;14.42;55.62;92162.53;4768920;30;20059;-76
2022/06/08 04:41:36;;;;;;;1.75;1.10;;;;;;;14.49;55.05;92167.31;4754033;30;20055;-76
2022/06/08 04:44:03;;;;;;;1.27;0.82;;;;;;;14.57;55.03;92159.41;4769730;30;20130;-76
2022/06/08 04:46:30;;;;;;;1.15;0.85;;;;;;;14.64;55.53;92153.63;4753136;30;20032;-76
2022/06/08 04:48:58;;;;;;;2.03;0.85;;;;;;;14.72;54.84;92163.31;4752341;30;20500;-76
2022/06/08 04:51:26;;;;;;;1.10;0.88;;;;;;;14.84;53.94;92156.59;4745644;30;20070;-76
2022/06/08 04:53:52;;;;;;;1.15;0.90;;;;;;;14.97;53.04;92159.00;4750538;30;20110;-75
2022/06/08 04:56:19;;;;;;;0.90;0.90;;;;;;;15.15;52.68;92156.22;4753642;30;20031;-76
2022/06/08 04:58:48;;;;;;;1.85;1.17;;;;;;;15.29;53.28;92163.88;4744076;30;20055;-76
2022/06/08 05:01:15;;;;;;;1.63;1.10;;;;;;;15.41;52.69;92161.31;4723491;30;20044;-77
2022/06/08 05:03:41;;;;;;;1.05;0.80;;;;;;;15.54;51.20;92167.41;4752868;30;20399;-76
2022/06/08 05:06:07;;;;;;;1.77;0.98;;;;;;;15.68;50.47;92169.78;4754185;30;20499;-76
2022/06/08 05:08:36;;;;;;;0.98;0.80;;;;;;;15.80;50.63;92169.81;4754874;30;20134;-76
2022/06/08 05:11:05;;;;;;;2.13;0.90;;;;;;;15.91;50.46;92175.47;4753771;30;20040;-77
2022/06/08 05:13:33;;;;;;;0.98;0.80;;;;;;;16.05;50.46;92177.81;4743115;30;20499;-76
2022/06/08 05:16:05;;;;;;;4.13;0.90;;;;;;;16.15;51.16;92172.88;4755523;30;20044;-79
2022/06/08 05:18:33;;;;;;;1.50;1.00;;;;;;;16.26;50.35;92175.88;4758669;30;20055;-79
2022/06/08 05:21:01;;;;;;;2.00;1.08;;;;;;;16.36;55.84;92170.16;4757894;30;20035;-78
2022/06/08 05:23:34;;;;;;;2.92;1.10;;;;;;;16.59;56.79;92172.38;4757280;30;20043;-78
2022/06/08 05:26:05;;;;;;;1.98;1.10;;;;;;;16.39;60.72;92164.22;4756378;30;20538;-79
2022/06/08 05:28:31;;;;;;;3.35;1.05;;;;;;;16.36;59.95;92164.88;4742193;30;20063;-78
2022/06/08 05:30:59;;;;;;;5.47;1.15;;;;;;;16.37;61.01;92171.72;4754758;30;20135;-78
2022/06/08 05:33:30;;;;;;;2.30;1.10;;;;;;;16.30;61.21;92165.41;4753516;30;20036;-78
2022/06/08 05:36:00;;;;;;;1.77;0.98;;;;;;;16.36;59.89;92164.88;4767835;30;20406;-78
2022/06/08 05:38:27;;;;;;;2.47;1.02;;;;;;;16.27;60.54;92161.56;4742767;30;20376;-77
2022/06/08 05:40:54;;;;;;;5.30;1.65;;;;;;;16.33;61.16;92154.97;4737962;30;20052;-78
2022/06/08 05:43:21;;;;;;;2.55;1.20;;;;;;;16.42;60.05;92168.06;4737748;30;20523;-78
2022/06/08 05:45:52;;;;;;;3.55;1.30;;;;;;;16.99;59.67;92163.78;4763228;30;20055;-78
2022/06/08 05:48:18;;;;;;;6.72;1.58;;;;;;;17.68;57.16;92154.75;4740734;30;20495;-79
2022/06/08 05:50:46;;;;;;;2.97;1.08;;;;;;;18.62;55.25;92159.72;4741144;30;20048;-78
2022/06/08 05:53:15;;;;;;;2.25;1.17;;;;;;;18.97;54.52;92156.38;4755348;30;20401;-78
2022/06/08 05:55:42;;;;;;;2.97;1.25;;;;;;;19.57;52.29;92154.22;4756312;30;20092;-78
2022/06/08 05:58:08;;;;;;;3.15;1.20;;;;;;;19.42;53.52;92157.72;4756012;30;20396;-78
2022/06/08 06:00:37;;;;;;;4.32;1.10;;;;;;;19.27;54.62;92160.06;4754199;30;20038;-77
2022/06/08 06:03:03;;;;;;;3.85;1.00;;;;;;;19.64;51.80;92154.34;4771017;30;20084;-78
2022/06/08 06:05:32;;;;;;;3.63;1.02;;;;;;;19.92;50.84;92159.44;4756415;30;20541;-78
2022/06/08 06:08:03;;;;;;;2.78;1.15;;;;;;;19.88;50.41;92157.84;4756303;30;20096;-77
2022/06/08 06:10:34;;;;;;;2.85;1.10;;;;;;;19.98;51.75;92154.63;4739540;30;20519;-78
2022/06/08 06:13:00;;;;;;;2.88;1.00;;;;;;;19.95;51.44;92158.00;4767596;30;20143;-78
2022/06/08 06:15:41;;;;;;;5.32;1.33;;;;;;;20.20;50.14;92165.63;4755055;30;20483;-78
2022/06/08 06:18:07;;;;;;;3.13;1.17;;;;;;;20.70;50.57;92169.16;4755026;30;20070;-78
2022/06/08 06:20:35;;;;;;;2.45;1.10;;;;;;;20.73;50.14;92163.88;4756936;30;20069;-79
2022/06/08 06:23:21;;;;;;;3.13;1.10;;;;;;;20.64;48.89;92170.56;4770344;30;20063;-78
2022/06/08 06:26:15;;;;;;;14.52;2.50;;;;;;;20.79;50.59;92172.31;4751478;30;20051;-78
2022/06/08 06:28:50;;;;;;;5.75;1.30;;;;;;;20.59;48.59;92169.72;4755556;30;20109;-78
2022/06/08 06:31:40;;;;;;;1.63;0.82;;;;;;;20.03;50.65;92174.81;4754994;30;20130;-79
2022/06/08 06:34:16;;;;;;;2.17;1.10;;;;;;;19.61;52.37;92167.56;4755228;30;20032;-79
2022/06/08 06:36:42;;;;;;;5.60;1.20;;;;;;;19.42;53.76;92176.28;4755669;30;20101;-78
2022/06/08 06:39:08;;;;;;;1.73;0.90;;;;;;;19.48;53.95;92175.66;4740181;30;20150;-78
2022/06/08 06:41:38;;;;;;;6.15;1.50;;;;;;;19.57;56.53;92180.78;4755302;30;20039;-78
2022/06/08 06:44:05;;;;;;;3.17;1.58;;;;;;;18.96;57.26;92174.19;4740173;30;20059;-78
2022/06/08 06:46:49;;;;;;;7.53;1.13;;;;;;;18.84;56.73;92176.94;4774741;30;20406;-78
2022/06/08 06:49:22;;;;;;;5.80;1.50;;;;;;;18.67;60.49;92167.44;4728621;30;20047;-78
2022/06/08 06:51:52;;;;;;;6.40;1.20;;;;;;;18.38;58.97;92169.41;4740947;30;20131;-78
2022/06/08 06:54:18;;;;;;;5.07;1.48;;;;;;;18.40;60.51;92163.78;4740868;30;20050;-78
2022/06/08 06:56:46;;;;;;;4.32;1.42;;;;;;;18.51;58.95;92165.56;4740987;30;20043;-77
2022/06/08 06:59:17;;;;;;;4.82;1.60;;;;;;;18.73;59.46;92166.03;4741176;30;20047;-78
2022/06/08 07:01:46;;;;;;;2.05;1.13;;;;;;;18.73;58.69;92172.13;4755167;30;20048;-78
2022/06/08 07:04:11;;;;;;;3.55;1.13;;;;;;;18.95;58.80;92169.22;4755901;30;20040;-77
2022/06/08 07:06:38;;;;;;;2.53;1.10;;;;;;;18.72;59.50;92172.47;4739850;30;20036;-77
2022/06/08 07:09:04;;;;;;;3.20;1.60;;;;;;;18.68;58.78;92177.69;4740259;30;20499;-78
2022/06/08 07:11:40;;;;;;;3.05;1.20;;;;;;;18.80;58.90;92176.88;4740180;30;20072;-77
2022/06/08 07:14:14;;;;;;;3.20;1.10;;;;;;;18.93;59.17;92180.94;4740815;30;20040;-78
2022/06/08 07:16:40;;;;;;;4.28;1.25;;;;;;;18.80;60.12;92176.88;4739645;30;20587;-77
2022/06/08 07:19:08;;;;;;;4.72;1.60;;;;;;;18.55;61.44;92178.13;4739600;30;20035;-78
2022/06/08 07:21:35;;;;;;;8.77;1.45;;;;;;;18.69;61.13;92170.53;4739748;30;20052;-77
2022/06/08 07:24:00;;;;;;;2.28;1.30;;;;;;;18.99;59.00;92167.41;4754340;30;20052;-78
2022/06/08 07:26:28;;;;;;;4.22;1.30;;;;;;;18.93;59.85;92166.91;4739326;30;20479;-78
2022/06/08 07:28:54;;;;;;;1.83;1.10;;;;;;;19.32;59.70;92169.66;4740115;30;20048;-78
2022/06/08 07:31:21;;;;;;;3.28;1.23;;;;;;;19.46;59.77;92169.94;4739381;30;20212;-78
2022/06/08 07:33:47;;;;;;;2.42;1.27;;;;;;;19.07;59.78;92177.06;4739221;30;20510;-78
2022/06/08 07:36:13;;;;;;;2.15;1.30;;;;;;;19.18;61.34;92175.41;4754771;30;20175;-78
2022/06/08 07:38:40;;;;;;;5.47;1.30;;;;;;;18.91;61.55;92177.09;4754168;30;20056;-78
2022/06/08 07:41:06;;;;;;;5.43;1.08;;;;;;;19.09;60.58;92177.47;4754691;30;20063;-78
2022/06/08 07:43:31;;;;;;;3.05;1.42;;;;;;;18.91;60.72;92183.19;4754428;30;20407;-78
2022/06/08 07:45:57;;;;;;;6.43;1.50;;;;;;;19.03;59.82;92178.88;4738910;30;20040;-78
2022/06/08 07:51:08;;;;;;;2.35;1.10;;;;;;;19.62;58.79;92180.47;4754423;30;20439;-77
2022/06/08 07:53:34;;;;;;;2.47;1.27;;;;;;;19.68;60.00;92173.78;4738556;30;20051;-78
2022/06/08 07:56:00;;;;;;;2.70;1.15;;;;;;;19.52;57.37;92173.84;4738083;30;20036;-77
2022/06/08 07:58:26;;;;;;;6.13;1.38;;;;;;;19.49;58.91;92179.06;4754323;30;20044;-77
2022/06/08 08:00:53;;;;;;;4.45;1.20;;;;;;;19.56;59.28;92174.66;4755373;30;20063;-77
2022/06/08 08:03:20;;;;;;;3.85;1.20;;;;;;;19.24;59.28;92174.03;4754668;30;20087;-77
2022/06/08 08:05:46;;;;;;;4.57;1.30;;;;;;;19.17;59.87;92176.53;4754528;30;20129;-77
2022/06/08 08:08:15;;;;;;;2.55;1.30;;;;;;;19.02;58.78;92179.97;4738059;30;20146;-77
2022/06/08 08:10:41;;;;;;;6.95;1.50;;;;;;;19.04;60.14;92175.88;4754727;30;20043;-77
2022/06/08 08:13:07;;;;;;;1.95;1.20;;;;;;;18.95;60.35;92175.28;4754144;30;20032;-77
2022/06/08 08:15:34;;;;;;;2.88;1.17;;;;;;;19.00;60.88;92168.94;4754021;30;20074;-77
2022/06/08 08:18:00;;;;;;;3.17;1.30;;;;;;;19.34;59.17;92168.19;4753489;30;20483;-77
2022/06/08 08:20:28;;;;;;;2.83;1.30;;;;;;;19.17;57.20;92160.59;4738136;30;20082;-78
2022/06/08 08:22:55;;;;;;;2.28;1.20;;;;;;;19.27;58.10;92161.94;4738015;30;20048;-78
2022/06/08 08:25:22;;;;;;;4.03;1.23;;;;;;;19.14;54.35;92163.97;4738082;30;20439;-78
2022/06/08 08:27:49;;;;;;;4.70;1.40;;;;;;;19.04;54.42;92159.19;4753708;30;20045;-78
2022/06/08 08:30:17;;;;;;;1.45;1.05;;;;;;;19.09;51.51;92166.88;4738078;30;20113;-77
2022/06/08 08:32:44;;;;;;;2.08;1.00;;;;;;;19.05;54.11;92158.84;4753790;30;20044;-78
2022/06/08 08:35:11;;;;;;;1.10;1.00;;;;;;;18.99;47.96;92160.22;4738949;30;20028;-78
2022/06/08 08:37:37;;;;;;;2.65;1.33;;;;;;;18.97;50.98;92153.72;4753816;30;20126;-78
2022/06/08 08:40:05;;;;;;;2.53;1.40;;;;;;;19.05;52.50;92156.19;4753499;30;20482;-77
2022/06/08 08:42:32;;;;;;;2.88;1.13;;;;;;;19.09;51.52;92158.91;4753589;30;20411;-78
2022/06/08 08:45:13;;;;;;;5.03;1.35;;;;;;;18.87;54.29;92155.81;4753894;30;20036;-77
2022/06/08 08:47:45;;;;;;;2.43;1.20;;;;;;;19.01;53.85;92154.59;4737593;30;20036;-78
2022/06/08 08:50:20;;;;;;;2.50;1.40;;;;;;;19.13;55.39;92165.81;4736848;30;20051;-77
2022/06/08 08:53:09;;;;;;;3.05;1.30;;;;;;;19.05;52.43;92161.50;4753022;30;20040;-78
2022/06/08 08:56:14;;;;;;;3.20;1.30;;;;;;;19.27;54.41;92157.44;4730401;30;20103;-78
2022/06/08 08:58:43;;;;;;;2.47;1.35;;;;;;;19.25;54.15;92159.66;4753310;30;20594;-78
2022/06/08 09:01:23;;;;;;;2.40;1.25;;;;;;;19.10;51.99;92163.88;4753451;30;20039;-78
2022/06/08 09:03:56;;;;;;;3.83;1.10;;;;;;;18.85;53.18;92159.94;4737076;30;20044;-78
2022/06/08 09:06:26;;;;;;;2.92;1.30;;;;;;;19.05;53.29;92166.81;4753031;30;20036;-77
2022/06/08 09:08:58;;;;;;;1.73;1.20;;;;;;;19.10;52.45;92168.44;4736475;30;20068;-78
2022/06/08 09:11:26;;;;;;;5.90;1.40;;;;;;;19.36;53.34;92170.47;4752883;30;20047;-78
2022/06/08 09:13:51;;;;;;;4.45;1.63;;;;;;;19.39;53.40;92163.72;4752594;30;20047;-78
2022/06/08 09:16:43;;;;;;;2.53;1.33;;;;;;;19.26;54.42;92158.53;4752594;30;20036;-77
2022/06/08 09:19:21;;;;;;;3.67;1.25;;;;;;;19.77;54.50;92152.34;4746089;30;20139;-78
2022/06/08 09:21:51;;;;;;;2.35;1.20;;;;;;;20.21;54.33;92156.53;4736795;30;20546;-78
2022/06/08 09:24:29;;;;;;;3.50;1.15;;;;;;;20.59;52.85;92159.09;4752462;30;20040;-78
2022/06/08 09:27:05;;;;;;;2.38;1.00;;;;;;;20.84;52.31;92158.72;4753165;30;20119;-78
2022/06/08 09:29:31;;;;;;;2.45;1.15;;;;;;;21.15;50.04;92167.53;4737647;30;20473;-78
2022/06/08 09:31:57;;;;;;;2.25;1.13;;;;;;;20.77;50.52;92166.59;4722185;30;20047;-77
2022/06/08 09:34:28;;;;;;;5.13;1.00;;;;;;;20.43;49.58;92166.41;4736852;30;20044;-77
2022/06/08 09:37:23;;;;;;;5.45;1.00;;;;;;;20.33;49.16;92164.34;4751812;30;20119;-78
2022/06/08 09:39:49;;;;;;;2.47;1.10;;;;;;;20.34;49.89;92165.88;4751896;30;20078;-78
2022/06/08 09:42:26;;;;;;;1.98;0.98;;;;;;;19.97;51.28;92163.69;4736210;30;20052;-78
2022/06/08 09:45:23;;;;;;;1.83;1.00;;;;;;;20.41;50.82;92158.03;4752182;30;20036;-78
2022/06/08 09:53:45;;;;;;;2.15;1.10;;;;;;;20.35;49.08;92146.13;4752704;30;20518;-77
2022/06/08 09:56:24;;;;;;;2.25;1.10;;;;;;;20.32;49.62;92141.53;4736422;30;20040;-77
2022/06/08 09:59:08;;;;;;;2.65;1.20;;;;;;;20.67;47.56;92146.69;4752375;30;20071;-77
2022/06/08 10:01:46;;;;;;;3.08;1.27;;;;;;;20.68;48.00;92150.13;4721348;30;20431;-77
2022/06/08 10:04:23;;;;;;;2.30;1.20;;;;;;;21.06;48.27;92146.50;4751844;30;20507;-77
2022/06/08 10:07:14;;;;;;;2.90;1.10;;;;;;;21.29;46.46;92133.09;4753877;30;20077;-78
2022/06/08 10:10:11;;;;;;;2.05;1.15;;;;;;;21.38;44.93;92132.84;4752844;30;20043;-78
2022/06/08 10:12:44;;;;;;;2.28;1.20;;;;;;;21.39;47.47;92140.47;4753505;30;20108;-77
2022/06/08 10:15:24;;;;;;;5.28;1.10;;;;;;;20.96;46.99;92145.22;4736117;30;20043;-78
2022/06/08 10:18:02;;;;;;;1.95;1.20;;;;;;;20.96;48.08;92134.59;4752293;30;20532;-77
2022/06/08 10:20:34;;;;;;;1.55;1.10;;;;;;;20.56;46.90;92137.75;4752129;30;20083;-77
2022/06/08 10:23:24;;;;;;;;;;;;;;;20.95;49.49;92132.28;4736979;30;20044;-77
2022/06/08 10:25:57;;;;;;;1.42;1.00;;;;;;;20.90;49.55;92136.00;4736308;30;19914;-77
2022/06/08 10:28:41;;;;;;;2.15;1.20;;;;;;;20.78;51.05;92122.91;4751132;30;20127;-78
2022/06/08 10:31:15;;;;;;;2.63;1.50;;;;;;;20.56;51.54;92129.78;4751407;30;20059;-78
2022/06/08 10:34:10;;;;;;;3.50;1.10;;;;;;;20.54;49.74;92124.06;4735527;30;20117;-78
2022/06/08 10:36:38;;;;;;;2.10;1.30;;;;;;;20.57;51.64;92129.44;4723135;30;20576;-77
2022/06/08 10:39:05;;;;;;;2.58;1.30;;;;;;;20.71;51.11;92126.22;4751852;30;20540;-78
2022/06/08 10:44:34;;;;;;;2.08;1.13;;;;;;;20.67;48.61;92116.66;4751679;30;20588;-77
2022/06/08 10:47:12;;;;;;;3.17;1.23;;;;;;;20.70;48.38;92116.72;4752197;30;20051;-77
2022/06/08 10:49:37;;;;;;;3.50;1.42;;;;;;;20.77;49.85;92113.41;4725070;30;20059;-78
2022/06/08 10:52:18;;;;;;;5.15;1.50;;;;;;;20.67;49.38;92114.00;4770428;30;20403;-77
2022/06/08 10:55:17;;;;;;;1.95;1.10;;;;;;;20.54;50.75;92114.19;4754037;30;20554;-78
2022/06/08 10:57:52;;;;;;;2.92;1.27;;;;;;;20.45;49.62;92116.31;4747143;30;20134;-77
2022/06/08 11:00:20;;;;;;;5.32;2.20;;;;;;;20.57;50.01;92118.03;4770670;30;20043;-77
2022/06/08 11:02:54;;;;;;;6.10;1.27;;;;;;;20.68;49.75;92111.00;4753757;30;20059;-77
2022/06/08 11:05:32;;;;;;;2.55;1.35;;;;;;;20.72;50.18;92108.41;4770355;30;20046;-78
2022/06/08 11:08:00;;;;;;;2.25;1.20;;;;;;;21.06;50.11;92095.94;4754710;30;20043;-77
2022/06/08 11:11:00;;;;;;;3.35;1.38;;;;;;;21.34;49.40;92092.84;4754567;30;20054;-77
2022/06/08 11:13:34;;;;;;;3.00;1.30;;;;;;;21.68;50.29;92092.88;4757645;30;20470;-78
2022/06/08 11:16:08;;;;;;;2.25;1.00;;;;;;;21.89;48.03;92086.25;4754746;30;20131;-77
2022/06/08 11:18:37;;;;;;;2.97;1.30;;;;;;;22.14;46.63;92076.59;4770449;30;20410;-78
2022/06/08 11:21:28;;;;;;;4.03;1.30;;;;;;;21.86;48.68;92076.31;4755531;30;20073;-77
2022/06/08 11:24:23;;;;;;;2.05;1.20;;;;;;;22.13;49.15;92075.03;4754721;30;20050;-76
2022/06/08 11:26:50;;;;;;;5.80;1.50;;;;;;;21.76;50.45;92077.75;4770526;30;20039;-78
2022/06/08 11:29:16;;;;;;;3.55;1.40;;;;;;;21.93;49.63;92076.38;4770610;30;20119;-78
2022/06/08 11:31:42;;;;;;;3.15;1.60;;;;;;;21.90;47.51;92071.78;4772752;30;20463;-77
2022/06/08 11:34:19;;;;;;;3.15;1.50;;;;;;;21.79;48.46;92067.13;4774394;30;20056;-77
2022/06/08 11:37:06;;;;;;;2.25;1.30;;;;;;;22.09;49.85;92066.25;4774142;30;20086;-77
2022/06/08 11:39:58;;;;;;;3.95;1.55;;;;;;;22.19;47.13;92060.25;4774027;30;20043;-78
2022/06/08 11:42:29;;;;;;;4.28;1.42;;;;;;;21.75;47.77;92069.00;4772882;30;20051;-78
2022/06/08 11:44:58;;;;;;;2.25;1.30;;;;;;;21.27;47.85;92055.50;4773226;30;20368;-77
2022/06/08 11:47:34;;;;;;;8.07;1.98;;;;;;;21.33;49.41;92061.28;4757165;30;20481;-77
2022/06/08 11:50:12;;;;;;;2.78;1.40;;;;;;;21.32;48.85;92057.06;4757294;30;20047;-77
2022/06/08 11:52:41;;;;;;;4.53;1.58;;;;;;;21.37;50.87;92056.78;4757476;30;20101;-77
2022/06/08 11:55:10;;;;;;;4.13;1.75;;;;;;;21.11;51.12;92054.94;4757132;30;20372;-77
2022/06/08 11:58:05;;;;;;;3.28;1.30;;;;;;;21.10;51.89;92059.50;4772408;30;20402;-77
2022/06/08 12:00:49;;;;;;;2.70;1.40;;;;;;;21.16;48.65;92062.59;4750850;30;20400;-78
2022/06/08 12:03:26;;;;;;;2.85;1.30;;;;;;;21.35;46.37;92054.47;4773172;30;20047;-76
2022/06/08 12:06:14;;;;;;;3.75;1.50;;;;;;;21.46;48.20;92053.84;4756538;30;20063;-77
2022/06/08 12:08:44;;;;;;;4.07;1.80;;;;;;;21.53;47.96;92045.94;4772481;30;20503;-78
2022/06/08 12:11:13;;;;;;;4.03;2.00;;;;;;;21.21;49.79;92049.75;4755914;30;20410;-78
2022/06/08 12:13:40;;;;;;;4.45;1.90;;;;;;;21.19;49.79;92051.25;4771897;30;20027;-77